Time;durP1;ratioP1;P1;durP2;ratioP2;P2;SDS_P1;SDS_P2;PMS_P1;PMS_P2;Temp;Humidity;BMP_temperature;BMP_pressure;BME280_temperature;BME280_humidity;BME280_pressure;Samples;Min_cycle;Max_cycle;Signal;HPM_P1;HPM_P2
2022/12/01 00:00:51;;;;;;;;;;;;;;;7.30;56.43;95698.91;5070626;28;20008;-67
2022/12/01 00:03:17;;;;;;;;;;;;;;;7.39;56.53;95693.84;5068672;28;20108;-67
2022/12/01 00:05:42;;;;;;;;;;;;;;;7.62;56.12;95692.44;5069978;28;20546;-68
2022/12/01 00:08:07;;;;;;;;;;;;;;;7.69;55.56;95688.44;5069414;28;20067;-67
2022/12/01 00:10:32;;;;;;;;;;;;;;;7.52;55.33;95680.84;5070422;28;20023;-67
2022/12/01 00:12:59;;;;;;;;;;;;;;;7.53;55.50;95681.63;5070369;28;20051;-67
2022/12/01 00:15:25;;;;;;;;;;;;;;;7.86;55.17;95671.41;5069158;28;20017;-66
2022/12/01 00:17:50;;;;;;;;;;;;;;;7.92;54.98;95679.06;5070521;28;20154;-67
2022/12/01 00:20:15;;;;;;;;;;;;;;;7.98;54.28;95674.50;5069180;28;20039;-67
2022/12/01 00:22:41;;;;;;;;;;;;;;;7.95;54.29;95667.13;5070098;28;20020;-67
2022/12/01 00:25:07;;;;;;;;;;;;;;;7.90;54.32;95667.94;5069759;28;20811;-67
2022/12/01 00:27:32;;;;;;;;;;;;;;;7.80;54.50;95671.44;5069292;28;20063;-67
2022/12/01 00:29:57;;;;;;;;;;;;;;;7.99;54.61;95665.53;5070219;28;20047;-67
2022/12/01 00:32:22;;;;;;;;;;;;;;;8.00;54.25;95665.25;5070212;28;20013;-67
2022/12/01 00:34:47;;;;;;;;;;;;;;;7.92;54.11;95670.31;5068199;28;20024;-67
2022/12/01 00:37:13;;;;;;;;;;;;;;;8.05;54.05;95667.84;5066385;28;20019;-64
2022/12/01 00:39:38;;;;;;;;;;;;;;;7.96;54.56;95666.06;5067147;28;20017;-67
2022/12/01 00:42:03;;;;;;;;;;;;;;;7.98;54.58;95663.91;5068844;28;20466;-67
2022/12/01 00:44:28;;;;;;;;;;;;;;;7.97;54.37;95668.44;5068048;28;20120;-65
2022/12/01 00:46:53;;;;;;;;;;;;;;;8.02;54.21;95668.41;5066887;28;20017;-66
2022/12/01 00:49:19;;;;;;;;;;;;;;;7.85;54.55;95667.19;5069546;28;20024;-68
2022/12/01 00:51:44;;;;;;;;;;;;;;;8.01;54.72;95666.81;5069945;28;20017;-67
2022/12/01 00:54:09;;;;;;;;;;;;;;;8.10;54.02;95666.25;5070051;28;20016;-66
2022/12/01 00:56:34;;;;;;;;;;;;;;;7.81;54.10;95670.38;5068757;28;20016;-66
2022/12/01 00:59:00;;;;;;;;;;;;;;;7.79;54.63;95669.88;5068728;28;20017;-66
2022/12/01 01:01:25;;;;;;;;;;;;;;;7.78;54.97;95675.44;5070101;28;20013;-66
2022/12/01 01:03:50;;;;;;;;;;;;;;;7.84;55.05;95673.56;5068719;28;20013;-66
2022/12/01 01:06:15;;;;;;;;;;;;;;;7.88;55.00;95675.34;5069604;28;20056;-66
2022/12/01 01:08:41;;;;;;;;;;;;;;;7.99;54.35;95671.59;5069143;28;20013;-67
2022/12/01 01:11:07;;;;;;;;;;;;;;;7.58;55.47;95681.63;5069761;28;20016;-67
2022/12/01 01:13:33;;;;;;;;;;;;;;;7.62;55.04;95687.94;5069618;28;20013;-67
2022/12/01 01:15:59;;;;;;;;;;;;;;;7.51;55.95;95683.75;5069515;28;20059;-67
2022/12/01 01:18:25;;;;;;;;;;;;;;;7.54;55.67;95680.56;5069676;28;20100;-68
2022/12/01 01:20:57;;;;;;;;;;;;;;;7.30;56.07;95686.47;5068834;28;20055;-67
2022/12/01 01:23:22;;;;;;;;;;;;;;;7.53;55.57;95684.28;5069463;28;20035;-67
2022/12/01 01:25:47;;;;;;;;;;;;;;;7.66;55.91;95673.09;5069391;28;20010;-68
2022/12/01 01:28:13;;;;;;;;;;;;;;;7.49;55.53;95680.59;5069602;28;20645;-67
2022/12/01 01:30:38;;;;;;;;;;;;;;;7.19;56.35;95679.63;5068833;28;20042;-68
2022/12/01 01:33:03;;;;;;;;;;;;;;;6.94;57.09;95685.75;5069336;28;20012;-68
2022/12/01 01:35:28;;;;;;;;;;;;;;;6.97;57.35;95672.00;5069229;28;20118;-67
2022/12/01 01:37:54;;;;;;;;;;;;;;;6.74;57.73;95683.91;5068640;28;20457;-68
2022/12/01 01:40:19;;;;;;;;;;;;;;;6.62;58.01;95680.75;5069582;28;20013;-67
2022/12/01 01:42:44;;;;;;;;;;;;;;;6.43;58.37;95680.50;5069440;28;20009;-67
2022/12/01 01:45:21;;;;;;;;;;;;;;;6.00;59.76;95676.50;5069184;28;20032;-67
2022/12/01 01:47:48;;;;;;;;;;;;;;;6.11;59.09;95683.38;5068452;28;20056;-67
2022/12/01 01:50:15;;;;;;;;;;;;;;;5.93;59.61;95676.72;5069503;28;20020;-67
2022/12/01 01:52:43;;;;;;;;;;;;;;;5.88;59.89;95681.97;5069486;28;20013;-68
2022/12/01 01:55:09;;;;;;;;;;;;;;;5.80;60.51;95682.50;5069000;28;20072;-68
2022/12/01 01:57:34;;;;;;;;;;;;;;;5.55;61.38;95677.13;5069383;28;20057;-66
2022/12/01 02:00:02;;;;;;;;;;;;;;;5.39;61.88;95668.34;5070666;28;20035;-66
2022/12/01 02:02:28;;;;;;;;;;;;;;;5.49;61.87;95681.59;5072875;28;20017;-67
2022/12/01 02:04:57;;;;;;;;;;;;;;;5.88;60.61;95675.88;5072192;28;20063;-67
2022/12/01 02:07:22;;;;;;;;;;;;;;;5.81;60.93;95673.50;5072792;28;20408;-66
2022/12/01 02:09:48;;;;;;;;;;;;;;;6.21;59.65;95670.19;5071323;28;20036;-67
2022/12/01 02:12:19;;;;;;;;;;;;;;;6.14;59.88;95668.84;5071631;28;20066;-67
2022/12/01 02:14:44;;;;;;;;;;;;;;;6.07;59.71;95663.81;5072359;28;20014;-67
2022/12/01 02:17:18;;;;;;;;;;;;;;;6.18;59.97;95660.13;5072167;28;20021;-67
2022/12/01 02:19:58;;;;;;;;;;;;;;;6.19;59.33;95658.28;5072300;28;20016;-67
2022/12/01 02:22:39;;;;;;;;;;;;;;;6.64;59.07;95662.78;5071112;28;20058;-68
2022/12/01 02:25:13;;;;;;;;;;;;;;;6.59;58.68;95660.13;5070924;28;20020;-67
2022/12/01 02:27:41;;;;;;;;;;;;;;;6.68;58.97;95661.19;5071720;28;20020;-67
2022/12/01 02:30:06;;;;;;;;;;;;;;;6.51;58.64;95664.13;5071907;28;20028;-67
2022/12/01 02:32:49;;;;;;;;;;;;;;;6.91;58.22;95662.50;5072325;28;20009;-67
2022/12/01 02:35:20;;;;;;;;;;;;;;;6.77;58.38;95672.03;5070849;28;20017;-68
2022/12/01 02:37:48;;;;;;;;;;;;;;;6.89;58.21;95663.81;5072111;28;20020;-68
2022/12/01 02:40:19;;;;;;;;;;;;;;;7.17;58.01;95663.22;5072108;28;20014;-67
2022/12/01 02:42:48;;;;;;;;;;;;;;;7.10;57.76;95660.06;5072156;28;20009;-67
2022/12/01 02:45:17;;;;;;;;;;;;;;;7.31;57.02;95660.78;5070441;28;20154;-67
2022/12/01 02:47:44;;;;;;;;;;;;;;;7.24;56.90;95653.13;5072151;28;20017;-66
2022/12/01 02:50:09;;;;;;;;;;;;;;;7.27;57.33;95657.13;5071940;28;20032;-66
2022/12/01 02:52:35;;;;;;;;;;;;;;;7.54;57.15;95667.34;5072239;28;20009;-67
2022/12/01 02:55:01;;;;;;;;;;;;;;;7.67;56.83;95650.06;5069452;28;20351;-67
2022/12/01 02:57:28;;;;;;;;;;;;;;;7.73;55.95;95649.78;5070524;28;20013;-67
2022/12/01 02:59:54;;;;;;;;;;;;;;;7.91;55.67;95650.19;5071872;28;20062;-67
2022/12/01 03:02:50;;;;;;;;;;;;;;;8.02;55.71;95654.38;5071779;28;20361;-66
2022/12/01 03:05:15;;;;;;;;;;;;;;;8.14;55.23;95651.38;5015957;28;20014;-66
2022/12/01 03:07:44;;;;;;;;;;;;;;;8.17;55.17;95651.63;5070221;28;20013;-67
2022/12/01 03:10:25;;;;;;;;;;;;;;;8.19;54.75;95636.25;5070950;28;20043;-67
2022/12/01 03:12:53;;;;;;;;;;;;;;;8.23;55.12;95644.41;5071529;28;20015;-67
2022/12/01 03:15:50;;;;;;;;;;;;;;;8.31;54.66;95647.28;5071049;28;20013;-66
2022/12/01 03:18:24;;;;;;;;;;;;;;;8.24;54.77;95651.28;5036202;28;20052;-67
2022/12/01 03:21:08;;;;;;;;;;;;;;;8.28;54.70;95645.16;5070029;28;20013;-67
2022/12/01 03:23:36;;;;;;;;;;;;;;;8.19;54.57;95652.16;5069855;28;20111;-67
2022/12/01 03:26:05;;;;;;;;;;;;;;;8.05;55.13;95643.22;5070945;28;20092;-67
2022/12/01 03:28:33;;;;;;;;;;;;;;;7.79;55.40;95634.66;5071286;28;20035;-67
2022/12/01 03:31:02;;;;;;;;;;;;;;;7.82;55.41;95640.16;5070435;28;20366;-67
2022/12/01 03:33:32;;;;;;;;;;;;;;;7.92;55.26;95639.31;5054705;28;20079;-67
2022/12/01 03:36:02;;;;;;;;;;;;;;;7.96;55.27;95645.66;5066055;28;20045;-67
2022/12/01 03:38:29;;;;;;;;;;;;;;;8.01;55.35;95635.03;5066406;28;20055;-66
2022/12/01 03:40:57;;;;;;;;;;;;;;;8.10;55.53;95643.19;5050945;28;20009;-67
2022/12/01 03:43:27;;;;;;;;;;;;;;;7.91;55.44;95644.91;5081848;28;20060;-67
2022/12/01 03:45:59;;;;;;;;;;;;;;;7.95;55.27;95646.72;5070645;28;20071;-67
2022/12/01 03:48:25;;;;;;;;;;;;;;;8.07;55.22;95647.16;5070597;28;20010;-67
2022/12/01 03:50:51;;;;;;;;;;;;;;;8.07;55.19;95643.72;5069834;28;20027;-66
2022/12/01 03:53:28;;;;;;;;;;;;;;;8.20;55.39;95655.59;5070256;28;20111;-66
2022/12/01 03:55:56;;;;;;;;;;;;;;;8.16;55.27;95650.03;5069120;28;20437;-66
2022/12/01 03:58:27;;;;;;;;;;;;;;;8.17;55.01;95656.91;5070681;28;20010;-67
2022/12/01 04:00:56;;;;;;;;;;;;;;;8.12;55.25;95651.66;5069834;28;20024;-67
2022/12/01 04:03:22;;;;;;;;;;;;;;;8.19;55.40;95643.38;5070830;28;20058;-68
2022/12/01 04:05:48;;;;;;;;;;;;;;;8.19;54.96;95651.31;5070280;28;20064;-66
2022/12/01 04:08:13;;;;;;;;;;;;;;;7.93;55.27;95648.84;5070570;28;20038;-67
2022/12/01 04:10:38;;;;;;;;;;;;;;;7.74;55.84;95650.56;5070410;28;20095;-67
2022/12/01 04:13:04;;;;;;;;;;;;;;;7.92;55.87;95649.13;5069290;28;20017;-67
2022/12/01 04:15:29;;;;;;;;;;;;;;;8.03;55.65;95651.44;5070036;28;20017;-67
2022/12/01 04:17:55;;;;;;;;;;;;;;;8.13;55.55;95655.09;5070381;28;20013;-66
2022/12/01 04:20:20;;;;;;;;;;;;;;;8.10;55.31;95656.44;5070555;28;20009;-68
2022/12/01 04:22:46;;;;;;;;;;;;;;;7.93;55.37;95651.50;5069287;28;20008;-67
2022/12/01 04:25:11;;;;;;;;;;;;;;;7.98;55.81;95659.41;5067561;28;20039;-67
2022/12/01 04:27:37;;;;;;;;;;;;;;;8.04;55.80;95646.94;5070225;28;20066;-66
2022/12/01 04:30:03;;;;;;;;;;;;;;;7.84;56.01;95650.50;5070299;28;20017;-66
2022/12/01 04:32:28;;;;;;;;;;;;;;;7.84;56.34;95645.22;5070101;28;20720;-67
2022/12/01 04:34:54;;;;;;;;;;;;;;;7.99;55.73;95654.94;5069736;28;20008;-68
2022/12/01 04:37:19;;;;;;;;;;;;;;;7.96;55.89;95647.50;5069329;28;20100;-66
2022/12/01 04:39:45;;;;;;;;;;;;;;;8.09;55.67;95644.25;5070056;28;20056;-68
2022/12/01 04:42:10;;;;;;;;;;;;;;;8.17;55.24;95646.31;5070073;28;20063;-66
2022/12/01 04:44:35;;;;;;;;;;;;;;;7.90;55.29;95641.47;5069995;28;20021;-67
2022/12/01 04:47:04;;;;;;;;;;;;;;;8.11;54.95;95642.13;5069490;28;20473;-66
2022/12/01 04:49:30;;;;;;;;;;;;;;;7.70;56.18;95641.56;5068680;28;20032;-66
2022/12/01 04:51:55;;;;;;;;;;;;;;;7.71;55.96;95648.44;5070024;28;20009;-67
2022/12/01 04:54:21;;;;;;;;;;;;;;;7.84;55.70;95647.06;5070017;28;20032;-67
2022/12/01 04:56:46;;;;;;;;;;;;;;;7.76;55.66;95651.84;5069395;28;20009;-66
2022/12/01 04:59:12;;;;;;;;;;;;;;;7.86;55.66;95644.94;5068807;28;20013;-66
2022/12/01 05:01:37;;;;;;;;;;;;;;;7.97;55.66;95646.44;5069690;28;20012;-67
2022/12/01 05:04:03;;;;;;;;;;;;;;;8.12;55.50;95650.84;5069833;28;20094;-65
2022/12/01 05:06:28;;;;;;;;;;;;;;;8.15;55.42;95652.97;5069450;28;20009;-67
2022/12/01 05:08:55;;;;;;;;;;;;;;;8.23;54.82;95655.00;5068640;28;20938;-67
2022/12/01 05:11:20;;;;;;;;;;;;;;;8.24;54.71;95654.75;5070008;28;20009;-67
2022/12/01 05:13:46;;;;;;;;;;;;;;;8.30;54.76;95660.81;5069694;28;20135;-68
2022/12/01 05:16:17;;;;;;;;;;;;;;;8.22;54.62;95654.22;5069281;28;20043;-66
2022/12/01 05:18:42;;;;;;;;;;;;;;;8.35;54.57;95663.44;5069822;28;20458;-66
2022/12/01 05:21:09;;;;;;;;;;;;;;;8.40;54.29;95665.28;5068580;28;20038;-68
2022/12/01 05:23:35;;;;;;;;;;;;;;;8.24;54.43;95665.38;5069500;28;20017;-66
2022/12/01 05:26:01;;;;;;;;;;;;;;;8.26;54.57;95657.91;5069230;28;20012;-65
2022/12/01 05:28:26;;;;;;;;;;;;;;;8.39;54.33;95658.38;5069507;28;20009;-66
2022/12/01 05:30:53;;;;;;;;;;;;;;;8.46;54.61;95654.34;5068274;28;20013;-66
2022/12/01 05:33:18;;;;;;;;;;;;;;;8.51;53.96;95658.81;5068864;28;20017;-67
2022/12/01 05:35:43;;;;;;;;;;;;;;;8.56;53.54;95658.78;5073352;28;20054;-67
2022/12/01 05:38:09;;;;;;;;;;;;;;;8.48;53.67;95659.38;5073347;28;20016;-66
2022/12/01 05:40:35;;;;;;;;;;;;;;;8.53;53.88;95654.81;5070768;28;20021;-68
2022/12/01 05:43:00;;;;;;;;;;;;;;;8.57;54.07;95655.06;5088972;28;20544;-69
2022/12/01 05:45:25;;;;;;;;;;;;;;;8.49;53.91;95658.28;5072865;28;20019;-68
2022/12/01 05:47:54;;;;;;;;;;;;;;;8.56;53.94;95662.22;5073515;28;20023;-67
2022/12/01 05:50:20;;;;;;;;;;;;;;;8.67;53.81;95656.84;5072356;28;20024;-67
2022/12/01 05:52:45;;;;;;;;;;;;;;;8.69;53.59;95652.81;5073215;28;20115;-67
2022/12/01 05:55:10;;;;;;;;;;;;;;;8.71;53.42;95655.22;5071535;28;20116;-67
2022/12/01 05:57:36;;;;;;;;;;;;;;;8.68;53.58;95661.84;5073261;28;20123;-68
2022/12/01 06:00:01;;;;;;;;;;;;;;;8.75;53.65;95664.19;5071967;28;20049;-69
2022/12/01 06:02:26;;;;;;;;;;;;;;;8.77;53.37;95657.53;5073329;28;20009;-67
2022/12/01 06:04:52;;;;;;;;;;;;;;;8.65;53.48;95662.44;5071509;28;20013;-67
2022/12/01 06:07:17;;;;;;;;;;;;;;;8.31;54.35;95657.09;5069748;28;20019;-66
2022/12/01 06:09:45;;;;;;;;;;;;;;;8.35;54.69;95663.44;5060834;28;20104;-66
2022/12/01 06:12:10;;;;;;;;;;;;;;;8.54;54.24;95667.00;5067949;28;20021;-66
2022/12/01 06:14:35;;;;;;;;;;;;;;;8.67;54.12;95675.41;5052312;28;20018;-66
2022/12/01 06:17:00;;;;;;;;;;;;;;;8.78;53.93;95668.94;5067663;28;20112;-65
2022/12/01 06:19:26;;;;;;;;;;;;;;;8.86;53.37;95665.69;5076005;28;20016;-65
2022/12/01 06:21:51;;;;;;;;;;;;;;;8.83;53.01;95668.88;5070982;28;20069;-63
2022/12/01 06:24:16;;;;;;;;;;;;;;;8.25;54.43;95663.50;5071093;28;20373;-66
2022/12/01 06:26:42;;;;;;;;;;;;;;;7.57;56.45;95669.41;5086423;28;20207;-65
2022/12/01 06:29:08;;;;;;;;;;;;;;;7.49;56.89;95683.22;5071622;28;20366;-64
2022/12/01 06:31:33;;;;;;;;;;;;;;;6.50;59.87;95682.88;5070759;28;20039;-68
2022/12/01 06:33:58;;;;;;;;;;;;;;;6.81;59.52;95688.13;5070725;28;20099;-67
2022/12/01 06:36:24;;;;;;;;;;;;;;;6.87;59.34;95689.75;5069069;28;20112;-68
2022/12/01 06:38:49;;;;;;;;;;;;;;;6.11;61.50;95685.22;5071874;28;20009;-69
2022/12/01 06:41:14;;;;;;;;;;;;;;;6.05;61.53;95692.34;5071828;28;20063;-70
2022/12/01 06:43:39;;;;;;;;;;;;;;;6.07;62.21;95690.22;5070166;28;20370;-69
2022/12/01 06:46:05;;;;;;;;;;;;;;;6.13;62.38;95694.47;5068654;28;20013;-65
2022/12/01 06:48:30;;;;;;;;;;;;;;;6.67;61.38;95687.91;5070550;28;20014;-67
2022/12/01 06:50:59;;;;;;;;;;;;;;;6.15;62.05;95697.66;5071670;28;20614;-65
2022/12/01 06:53:26;;;;;;;;;;;;;;;6.30;62.06;95693.44;5071728;28;20013;-65
2022/12/01 06:55:51;;;;;;;;;;;;;;;5.87;63.07;95698.84;5070482;28;20013;-65
2022/12/01 06:58:17;;;;;;;;;;;;;;;6.04;63.17;95696.06;5070220;28;20374;-67
2022/12/01 07:00:42;;;;;;;;;;;;;;;5.83;62.95;95702.28;5070451;28;20108;-67
2022/12/01 07:03:07;;;;;;;;;;;;;;;6.78;61.31;95695.56;5069950;28;20477;-66
2022/12/01 07:05:32;;;;;;;;;;;;;;;7.33;59.78;95689.66;5070327;28;20017;-65
2022/12/01 07:07:59;;;;;;;;;;;;;;;5.75;63.17;95693.03;5070281;28;20496;-66
2022/12/01 07:10:24;;;;;;;;;;;;;;;6.81;60.92;95704.81;5070265;28;20021;-67
2022/12/01 07:12:49;;;;;;;;;;;;;;;6.69;60.79;95697.13;5069830;28;20078;-65
2022/12/01 07:15:14;;;;;;;;;;;;;;;6.49;61.31;95697.13;5070114;28;20107;-68
2022/12/01 07:17:40;;;;;;;;;;;;;;;7.30;59.68;95691.75;5071535;28;20085;-67
2022/12/01 07:20:05;;;;;;;;;;;;;;;7.60;58.35;95694.56;5086804;28;20009;-66
2022/12/01 07:22:30;;;;;;;;;;;;;;;7.88;57.41;95685.94;5071435;28;20064;-66
2022/12/01 07:24:56;;;;;;;;;;;;;;;8.13;56.56;95687.66;5069655;28;20035;-67
2022/12/01 07:27:21;;;;;;;;;;;;;;;8.14;56.19;95696.41;5070359;28;20013;-67
2022/12/01 07:29:46;;;;;;;;;;;;;;;8.04;56.39;95695.44;5071288;28;20017;-67
2022/12/01 07:32:11;;;;;;;;;;;;;;;8.05;55.81;95696.22;5071351;28;20378;-67
2022/12/01 07:34:36;;;;;;;;;;;;;;;7.74;57.11;95704.31;5071408;28;20013;-66
2022/12/01 07:37:02;;;;;;;;;;;;;;;8.11;56.13;95703.06;5070892;28;20381;-66
2022/12/01 07:39:27;;;;;;;;;;;;;;;7.87;56.51;95710.06;5069776;28;20477;-65
2022/12/01 07:41:53;;;;;;;;;;;;;;;8.28;56.14;95702.69;5069875;28;20055;-65
2022/12/01 07:44:18;;;;;;;;;;;;;;;8.22;55.70;95701.94;5070926;28;20016;-64
2022/12/01 07:46:43;;;;;;;;;;;;;;;8.47;55.70;95711.59;5069347;28;20020;-65
2022/12/01 07:49:10;;;;;;;;;;;;;;;8.00;55.94;95706.84;5070638;28;20116;-64
2022/12/01 07:51:35;;;;;;;;;;;;;;;7.72;57.57;95714.38;5070489;28;20021;-65
2022/12/01 07:54:02;;;;;;;;;;;;;;;8.11;56.31;95704.91;5086693;28;20017;-68
2022/12/01 07:56:27;;;;;;;;;;;;;;;8.44;55.36;95706.06;5085814;28;20041;-69
2022/12/01 07:58:53;;;;;;;;;;;;;;;8.22;55.09;95707.22;5087097;28;20059;-67
2022/12/01 08:01:20;;;;;;;;;;;;;;;7.48;56.95;95710.78;5069728;28;20037;-68
2022/12/01 08:03:46;;;;;;;;;;;;;;;7.09;59.14;95716.66;5070774;28;20015;-68
2022/12/01 08:06:11;;;;;;;;;;;;;;;8.01;57.26;95721.66;5070096;28;20103;-67
2022/12/01 08:08:38;;;;;;;;;;;;;;;8.54;56.47;95711.28;5069215;28;20059;-67
2022/12/01 08:11:04;;;;;;;;;;;;;;;8.97;55.07;95712.28;5070304;28;20707;-68
2022/12/01 08:13:30;;;;;;;;;;;;;;;9.29;53.81;95719.66;5070259;28;20040;-66
2022/12/01 08:15:56;;;;;;;;;;;;;;;9.54;53.16;95715.16;5069855;28;20461;-66
2022/12/01 08:18:21;;;;;;;;;;;;;;;9.54;51.78;95721.25;5070298;28;20016;-67
2022/12/01 08:20:47;;;;;;;;;;;;;;;9.72;52.62;95725.03;5069240;28;20017;-68
2022/12/01 08:23:12;;;;;;;;;;;;;;;8.07;55.47;95720.56;5068770;28;20067;-66
2022/12/01 08:25:38;;;;;;;;;;;;;;;8.04;56.53;95724.56;5070276;28;20020;-67
2022/12/01 08:28:03;;;;;;;;;;;;;;;8.60;55.19;95726.13;5070249;28;20008;-66
2022/12/01 08:30:29;;;;;;;;;;;;;;;8.44;54.66;95721.97;5069828;28;20017;-67
2022/12/01 08:32:55;;;;;;;;;;;;;;;8.70;53.99;95719.91;5068965;28;20017;-67
2022/12/01 08:35:20;;;;;;;;;;;;;;;8.19;55.06;95722.88;5069723;28;20017;-66
2022/12/01 08:37:46;;;;;;;;;;;;;;;6.57;60.09;95727.56;5070139;28;20033;-66
2022/12/01 08:40:11;;;;;;;;;;;;;;;7.49;58.04;95728.22;5069977;28;20009;-66
2022/12/01 08:42:37;;;;;;;;;;;;;;;6.90;58.64;95732.28;5068765;28;20119;-66
2022/12/01 08:45:02;;;;;;;;;;;;;;;6.22;62.06;95727.22;5068905;28;20104;-66
2022/12/01 08:47:27;;;;;;;;;;;;;;;6.17;61.47;95734.34;5068727;28;20067;-66
2022/12/01 08:49:53;;;;;;;;;;;;;;;7.18;59.37;95730.94;5069951;28;20029;-67
2022/12/01 08:52:19;;;;;;;;;;;;;;;7.12;58.87;95728.59;5069887;28;20016;-66
2022/12/01 08:54:44;;;;;;;;;;;;;;;7.59;57.39;95725.56;5069191;28;20009;-67
2022/12/01 08:57:09;;;;;;;;;;;;;;;8.14;56.63;95722.91;5069564;28;20010;-67
2022/12/01 08:59:35;;;;;;;;;;;;;;;8.63;55.67;95716.78;5070077;28;20013;-67
2022/12/01 09:02:00;;;;;;;;;;;;;;;9.07;54.64;95720.16;5069733;28;20044;-67
2022/12/01 09:04:25;;;;;;;;;;;;;;;9.19;53.42;95716.31;5068397;28;20035;-67
2022/12/01 09:06:52;;;;;;;;;;;;;;;9.49;52.97;95717.88;5069386;28;20009;-67
2022/12/01 09:09:19;;;;;;;;;;;;;;;9.76;52.15;95720.72;5071140;28;20021;-67
2022/12/01 09:11:45;;;;;;;;;;;;;;;9.83;51.38;95726.50;5073875;28;20056;-66
2022/12/01 09:14:11;;;;;;;;;;;;;;;10.01;50.77;95724.94;5072681;28;20039;-66
2022/12/01 09:16:36;;;;;;;;;;;;;;;10.14;50.41;95728.78;5072621;28;20017;-67
2022/12/01 09:19:02;;;;;;;;;;;;;;;9.96;49.92;95718.91;5073504;28;20070;-67
2022/12/01 09:21:31;;;;;;;;;;;;;;;10.26;50.22;95720.41;5073488;28;20056;-67
2022/12/01 09:23:57;;;;;;;;;;;;;;;10.37;49.68;95721.84;5073655;28;20489;-68
2022/12/01 09:26:22;;;;;;;;;;;;;;;10.55;49.49;95726.38;5072426;28;20020;-66
2022/12/01 09:28:49;;;;;;;;;;;;;;;10.61;48.98;95733.19;5073231;28;20107;-66
2022/12/01 09:31:14;;;;;;;;;;;;;;;10.81;48.37;95726.78;5073531;28;20051;-66
2022/12/01 09:33:39;;;;;;;;;;;;;;;10.84;47.50;95723.50;5072710;28;20374;-66
2022/12/01 09:36:05;;;;;;;;;;;;;;;11.00;47.94;95726.72;5073219;28;20018;-66
2022/12/01 09:38:32;;;;;;;;;;;;;;;11.08;47.06;95723.41;5073214;28;20009;-66
2022/12/01 09:41:03;;;;;;;;;;;;;;;10.97;47.19;95723.88;5073373;28;20093;-66
2022/12/01 09:43:29;;;;;;;;;;;;;;;11.08;47.59;95722.59;5071847;28;20013;-67
2022/12/01 09:46:01;;;;;;;;;;;;;;;11.23;46.86;95727.66;5072229;28;20021;-67
2022/12/01 09:48:42;;;;;;;;;;;;;;;11.43;47.21;95721.19;5071693;28;20107;-66
2022/12/01 09:51:24;;;;;;;;;;;;;;;11.52;46.45;95718.66;5071359;28;20032;-66
2022/12/01 09:53:50;;;;;;;;;;;;;;;11.57;46.03;95729.19;5072964;28;20009;-65
2022/12/01 09:56:18;;;;;;;;;;;;;;;11.61;45.58;95708.84;5071632;28;20025;-65
2022/12/01 09:58:44;;;;;;;;;;;;;;;11.43;45.77;95710.53;5073437;28;20010;-65
2022/12/01 10:01:15;;;;;;;;;;;;;;;11.47;46.15;95695.56;5072827;28;20016;-65
2022/12/01 10:03:47;;;;;;;;;;;;;;;11.35;46.01;95701.34;5072737;28;20113;-65
2022/12/01 10:06:15;;;;;;;;;;;;;;;11.24;46.42;95709.81;5072537;28;20088;-65
2022/12/01 10:08:45;;;;;;;;;;;;;;;10.87;45.86;95704.31;5071810;28;20520;-66
2022/12/01 10:11:19;;;;;;;;;;;;;;;10.78;46.56;95694.63;5072058;28;20124;-66
2022/12/01 10:13:44;;;;;;;;;;;;;;;10.09;47.00;95635.81;5071357;28;20047;-67
2022/12/01 10:16:10;;;;;;;;;;;;;;;10.35;47.77;95687.56;5072170;28;20049;-66
2022/12/01 10:18:44;;;;;;;;;;;;;;;10.35;48.47;95690.22;5072752;28;20062;-67
2022/12/01 10:21:15;;;;;;;;;;;;;;;10.24;48.57;95688.78;5071264;28;20055;-66
2022/12/01 10:23:40;;;;;;;;;;;;;;;9.97;48.39;95678.75;5072512;28;20485;-67
2022/12/01 10:26:13;;;;;;;;;;;;;;;10.00;48.68;95680.84;5072090;28;20009;-66
2022/12/01 10:28:52;;;;;;;;;;;;;;;10.03;48.91;95684.78;5072276;28;20013;-67
2022/12/01 10:31:23;;;;;;;;;;;;;;;9.78;49.16;95685.94;5071411;28;20013;-67
2022/12/01 10:33:57;;;;;;;;;;;;;;;9.85;49.64;95686.38;5070981;28;20080;-67
2022/12/01 10:36:23;;;;;;;;;;;;;;;9.84;49.22;95685.56;5070784;28;20039;-67
2022/12/01 10:38:48;;;;;;;;;;;;;;;9.88;48.96;95677.84;5072095;28;20013;-66
2022/12/01 10:41:17;;;;;;;;;;;;;;;9.74;49.49;95671.63;5070819;28;20024;-66
2022/12/01 10:43:44;;;;;;;;;;;;;;;9.89;49.05;95679.41;5070720;28;20107;-66
2022/12/01 10:46:19;;;;;;;;;;;;;;;9.71;49.44;95680.16;5071736;28;20048;-66
2022/12/01 10:48:57;;;;;;;;;;;;;;;9.77;49.27;95676.34;5072215;28;20008;-66
2022/12/01 10:51:23;;;;;;;;;;;;;;;9.71;48.94;95672.97;5070164;28;20071;-66
2022/12/01 10:53:49;;;;;;;;;;;;;;;9.83;48.99;95670.72;5071180;28;20021;-65
2022/12/01 10:56:17;;;;;;;;;;;;;;;9.79;49.01;95664.38;5070547;28;20013;-66
2022/12/01 10:58:47;;;;;;;;;;;;;;;9.79;48.89;95667.03;5072205;28;20062;-66
2022/12/01 11:01:17;;;;;;;;;;;;;;;9.93;48.24;95667.13;5070920;28;20020;-66
2022/12/01 11:03:43;;;;;;;;;;;;;;;9.72;48.98;95663.13;5071903;28;20069;-66
2022/12/01 11:06:09;;;;;;;;;;;;;;;9.84;48.69;95659.00;5071006;28;20883;-67
2022/12/01 11:08:34;;;;;;;;;;;;;;;9.76;48.76;95656.19;5070405;28;20072;-66
2022/12/01 11:10:59;;;;;;;;;;;;;;;9.95;47.81;95662.31;5071327;28;20020;-67
2022/12/01 11:13:29;;;;;;;;;;;;;;;9.92;48.81;95664.75;5070894;28;20020;-65
2022/12/01 11:16:03;;;;;;;;;;;;;;;9.26;47.94;95568.91;5070155;28;20036;-66
2022/12/01 11:18:33;;;;;;;;;;;;;;;9.98;48.03;95655.63;5071469;28;20055;-65
2022/12/01 11:21:12;;;;;;;;;;;;;;;10.09;48.16;95657.88;5069224;28;20143;-66
2022/12/01 11:23:47;;;;;;;;;;;;;;;10.16;47.95;95658.28;5051514;28;20016;-65
2022/12/01 11:26:23;;;;;;;;;;;;;;;10.01;47.79;95655.06;5050787;28;20009;-66
2022/12/01 11:28:57;;;;;;;;;;;;;;;10.14;47.82;95652.47;5051733;28;20020;-66
2022/12/01 11:31:34;;;;;;;;;;;;;;;10.26;47.91;95646.75;5053829;28;20021;-66
2022/12/01 11:33:59;;;;;;;;;;;;;;;10.32;47.50;95640.28;5071030;28;20009;-66
2022/12/01 11:36:24;;;;;;;;;;;;;;;10.02;47.44;95644.13;5069655;28;20020;-66
2022/12/01 11:38:54;;;;;;;;;;;;;;;9.68;48.42;95654.97;5069605;28;20497;-66
2022/12/01 11:41:24;;;;;;;;;;;;;;;10.04;48.47;95649.19;5070473;28;20104;-67
2022/12/01 11:43:49;;;;;;;;;;;;;;;9.88;47.89;95646.72;5071228;28;20009;-66
2022/12/01 11:46:14;;;;;;;;;;;;;;;9.14;49.08;95648.16;5069286;28;20013;-66
2022/12/01 11:48:39;;;;;;;;;;;;;;;9.56;48.19;95643.94;5069081;28;20017;-65
2022/12/01 11:51:23;;;;;;;;;;;;;;;9.63;48.79;95647.84;5070749;28;20017;-67
2022/12/01 11:53:48;;;;;;;;;;;;;;;9.74;48.53;95639.75;5070828;28;20013;-67
2022/12/01 11:56:16;;;;;;;;;;;;;;;9.86;48.45;95646.22;5068745;28;20013;-66
2022/12/01 11:58:42;;;;;;;;;;;;;;;9.89;48.16;95642.22;5070774;28;20009;-66
2022/12/01 12:01:18;;;;;;;;;;;;;;;9.93;48.61;95647.72;5069823;28;20099;-67
2022/12/01 12:03:54;;;;;;;;;;;;;;;10.10;47.58;95645.38;5070942;28;20009;-67
2022/12/01 12:06:24;;;;;;;;;;;;;;;10.27;47.45;95648.31;5068050;28;20020;-65
2022/12/01 12:09:02;;;;;;;;;;;;;;;10.23;46.92;95641.97;5070468;28;20104;-66
2022/12/01 12:11:31;;;;;;;;;;;;;;;9.71;47.98;95641.09;5070495;28;20009;-66
2022/12/01 12:14:04;;;;;;;;;;;;;;;9.75;48.37;95646.63;5070529;28;20440;-66
2022/12/01 12:16:53;;;;;;;;;;;;;;;9.99;48.62;95638.63;5069792;28;20013;-67
2022/12/01 12:19:37;;;;;;;;;;;;;;;10.19;47.83;95634.88;5068667;28;20068;-66
2022/12/01 12:22:21;;;;;;;;;;;;;;;9.81;48.14;95634.88;5070388;28;20010;-66
2022/12/01 12:24:49;;;;;;;;;;;;;;;10.07;47.87;95636.09;5068887;28;20017;-66
2022/12/01 12:27:38;;;;;;;;;;;;;;;9.60;48.07;95632.47;5069528;28;20021;-67
2022/12/01 12:30:03;;;;;;;;;;;;;;;9.63;48.79;95631.91;5060740;28;20025;-66
2022/12/01 12:32:34;;;;;;;;;;;;;;;10.06;48.85;95626.53;5068642;28;20018;-66
2022/12/01 12:35:24;;;;;;;;;;;;;;;10.45;47.80;95627.34;5067787;28;20017;-66
2022/12/01 12:38:03;;;;;;;;;;;;;;;10.67;46.98;95625.59;5068680;28;20465;-67
2022/12/01 12:40:35;;;;;;;;;;;;;;;10.82;46.46;95627.22;5069375;28;20497;-67
2022/12/01 12:43:03;;;;;;;;;;;;;;;10.91;46.34;95630.78;5068488;28;20477;-67
2022/12/01 12:45:39;;;;;;;;;;;;;;;10.68;46.74;95626.41;5069754;28;20091;-67
2022/12/01 12:48:22;;;;;;;;;;;;;;;10.68;45.40;95616.53;5070397;28;20059;-67
2022/12/01 12:50:57;;;;;;;;;;;;;;;9.60;48.02;95629.03;5067993;28;20111;-67
2022/12/01 12:53:24;;;;;;;;;;;;;;;9.54;48.00;95624.88;5080725;28;20016;-66
2022/12/01 12:55:52;;;;;;;;;;;;;;;8.52;50.95;95626.72;5067430;28;20019;-65
2022/12/01 12:58:30;;;;;;;;;;;;;;;8.92;50.94;95626.63;5068431;28;20013;-67